createdAt,value
2022-12-04T00:02:27.292Z,9.07
2022-12-04T00:05:12.477Z,9.67
2022-12-04T00:07:57.836Z,10.80
2022-12-04T00:10:44.110Z,8.87
2022-12-04T00:13:29.338Z,10.30
2022-12-04T00:16:17.416Z,9.73
2022-12-04T00:19:02.908Z,9.97
2022-12-04T00:21:49.776Z,10.00
2022-12-04T00:24:35.359Z,10.00
2022-12-04T00:27:20.543Z,8.67
2022-12-04T00:30:06.528Z,7.93
2022-12-04T00:32:51.936Z,9.90
2022-12-04T00:35:37.300Z,9.13
2022-12-04T00:38:22.478Z,10.90
2022-12-04T00:41:12.726Z,12.37
2022-12-04T00:43:59.049Z,10.10
2022-12-04T00:46:44.154Z,9.90
2022-12-04T00:49:29.464Z,9.70
2022-12-04T00:52:14.689Z,8.93
2022-12-04T00:54:59.992Z,9.27
2022-12-04T00:57:45.415Z,8.40
2022-12-04T01:00:30.784Z,11.03
2022-12-04T01:03:16.162Z,9.73
2022-12-04T01:06:01.836Z,8.70
2022-12-04T01:08:48.137Z,8.17
2022-12-04T01:11:34.435Z,8.33
2022-12-04T01:14:19.782Z,10.07
2022-12-04T01:17:05.046Z,10.03
2022-12-04T01:19:50.366Z,9.63
2022-12-04T01:22:35.715Z,10.30
2022-12-04T01:25:21.141Z,7.87
2022-12-04T01:28:06.334Z,9.40
2022-12-04T01:31:09.118Z,9.37
2022-12-04T01:33:54.745Z,9.75
2022-12-04T01:36:40.051Z,9.87
2022-12-04T01:39:25.359Z,8.87
2022-12-04T01:42:15.629Z,9.87
2022-12-04T01:45:36.651Z,9.53
2022-12-04T01:48:30.940Z,8.57
2022-12-04T01:51:27.353Z,9.17
2022-12-04T01:54:22.883Z,11.37
2022-12-04T01:57:14.229Z,9.77
2022-12-04T02:00:05.394Z,8.93
2022-12-04T02:02:51.328Z,10.93
2022-12-04T02:05:36.830Z,9.50
2022-12-04T02:08:22.369Z,9.67
2022-12-04T02:11:42.152Z,8.87
2022-12-04T02:14:56.418Z,9.23
2022-12-04T02:17:59.995Z,8.93
2022-12-04T02:21:08.155Z,9.05
2022-12-04T02:24:02.239Z,11.60
2022-12-04T02:27:04.226Z,8.37
2022-12-04T02:29:59.495Z,9.07
2022-12-04T02:32:58.714Z,9.73
2022-12-04T02:36:03.374Z,9.30
2022-12-04T02:39:07.850Z,9.63
2022-12-04T02:42:03.596Z,8.30
2022-12-04T02:45:03.689Z,10.57
2022-12-04T02:47:49.371Z,10.97
2022-12-04T02:50:40.438Z,10.03
2022-12-04T02:53:32.667Z,11.40
2022-12-04T02:56:26.605Z,9.93
2022-12-04T02:59:20.524Z,9.80
2022-12-04T03:04:59.917Z,9.40
2022-12-04T03:07:52.436Z,8.90
2022-12-04T03:10:44.217Z,9.37
2022-12-04T03:13:34.196Z,8.83
2022-12-04T03:16:28.199Z,8.70
2022-12-04T03:19:21.279Z,10.27
2022-12-04T03:22:10.599Z,9.75
2022-12-04T03:24:57.416Z,9.13
2022-12-04T03:27:53.629Z,10.53
2022-12-04T03:30:50.021Z,11.20
2022-12-04T03:33:42.649Z,12.40
2022-12-04T03:36:34.801Z,10.17
2022-12-04T03:39:42.704Z,8.97
2022-12-04T03:42:53.309Z,10.17
2022-12-04T03:45:52.607Z,10.13
2022-12-04T03:49:29.789Z,10.00
2022-12-04T03:52:24.612Z,10.10
2022-12-04T03:55:43.515Z,9.37
2022-12-04T03:58:32.088Z,10.47
2022-12-04T04:01:23.160Z,11.03
2022-12-04T04:04:13.881Z,12.13
2022-12-04T04:07:12.180Z,11.57
2022-12-04T04:10:03.647Z,9.63
2022-12-04T04:13:14.728Z,9.87
2022-12-04T04:16:21.639Z,11.00
2022-12-04T04:19:27.884Z,9.30
2022-12-04T04:22:32.845Z,10.23
2022-12-04T04:25:24.332Z,10.90
2022-12-04T04:28:35.646Z,10.63
2022-12-04T04:31:50.343Z,9.50
2022-12-04T04:35:20.912Z,9.73
2022-12-04T04:38:06.435Z,10.70
2022-12-04T04:41:00.540Z,10.17
2022-12-04T04:44:08.378Z,9.80
2022-12-04T04:46:59.796Z,13.70
2022-12-04T04:49:47.511Z,10.50
2022-12-04T04:52:34.855Z,10.83
2022-12-04T04:55:21.018Z,10.23
2022-12-04T04:58:13.042Z,9.50
2022-12-04T05:01:04.983Z,11.37
2022-12-04T05:03:50.288Z,10.40
2022-12-04T05:06:35.464Z,10.50
2022-12-04T05:09:20.892Z,13.17
2022-12-04T05:12:06.418Z,10.47
2022-12-04T05:14:52.009Z,10.17
2022-12-04T05:17:37.552Z,9.77
2022-12-04T05:20:22.901Z,11.03
2022-12-04T05:23:08.344Z,11.00
2022-12-04T05:26:00.238Z,10.93
2022-12-04T05:28:45.705Z,10.60
2022-12-04T05:31:30.997Z,12.60
2022-12-04T05:34:16.109Z,10.97
2022-12-04T05:37:01.428Z,12.80
2022-12-04T05:39:47.123Z,9.90
2022-12-04T05:42:32.591Z,10.23
2022-12-04T05:45:18.122Z,10.07
2022-12-04T05:48:03.584Z,11.40
2022-12-04T05:50:48.927Z,9.70
2022-12-04T05:53:34.520Z,9.80
2022-12-04T05:56:20.296Z,11.50
2022-12-04T05:59:05.848Z,11.60
2022-12-04T06:01:51.139Z,13.30
2022-12-04T06:04:37.478Z,11.20
2022-12-04T06:07:22.868Z,12.03
2022-12-04T06:10:08.294Z,12.70
2022-12-04T06:12:57.725Z,11.40
2022-12-04T06:15:43.257Z,12.73
2022-12-04T06:18:28.458Z,12.33
2022-12-04T06:21:13.705Z,13.13
2022-12-04T06:23:59.096Z,11.30
2022-12-04T06:27:10.933Z,12.47
2022-12-04T06:29:50.294Z,15.50
2022-12-04T06:32:35.587Z,14.53
2022-12-04T06:35:20.853Z,25.67
2022-12-04T06:38:08.138Z,16.90
2022-12-04T06:40:53.639Z,18.47
2022-12-04T06:43:39.667Z,13.40
2022-12-04T06:46:28.460Z,15.70
2022-12-04T06:49:13.974Z,34.43
2022-12-04T06:51:59.469Z,16.60
2022-12-04T06:54:44.576Z,16.97
2022-12-04T06:57:29.780Z,18.17
2022-12-04T07:00:15.814Z,19.30
2022-12-04T07:03:01.005Z,18.73
2022-12-04T07:05:46.587Z,19.87
2022-12-04T07:08:32.177Z,21.87
2022-12-04T07:11:18.784Z,23.30
2022-12-04T07:14:04.804Z,19.60
2022-12-04T07:16:50.292Z,19.53
2022-12-04T07:19:35.522Z,23.87
2022-12-04T07:22:20.757Z,23.67
2022-12-04T07:25:06.194Z,22.50
2022-12-04T07:27:51.518Z,20.03
2022-12-04T07:30:38.401Z,22.77
2022-12-04T07:33:23.766Z,21.03
2022-12-04T07:36:13.411Z,18.63
2022-12-04T07:38:59.053Z,18.43
2022-12-04T07:41:44.172Z,19.70
2022-12-04T07:44:32.685Z,18.17
2022-12-04T07:47:17.864Z,21.47
2022-12-04T07:50:04.570Z,21.63
2022-12-04T07:52:50.262Z,21.17
2022-12-04T07:55:35.630Z,19.60
2022-12-04T07:58:21.148Z,22.47
2022-12-04T08:01:12.524Z,19.30
2022-12-04T08:03:59.490Z,21.67
2022-12-04T08:06:45.825Z,18.10
2022-12-04T08:09:31.417Z,21.50
2022-12-04T08:12:16.876Z,18.53
2022-12-04T08:15:02.233Z,22.87
2022-12-04T08:17:47.664Z,22.03
2022-12-04T08:20:32.976Z,22.27
2022-12-04T08:23:18.317Z,23.17
2022-12-04T08:26:05.380Z,22.47
2022-12-04T08:28:53.618Z,21.50
2022-12-04T08:31:39.338Z,22.10
2022-12-04T08:34:25.068Z,25.40
2022-12-04T08:37:10.587Z,25.27
2022-12-04T08:39:56.372Z,25.63
2022-12-04T08:42:41.936Z,22.33
2022-12-04T08:45:27.273Z,29.10
2022-12-04T08:48:12.331Z,23.90
2022-12-04T08:50:58.163Z,25.53
2022-12-04T08:53:43.750Z,26.90
2022-12-04T08:56:30.056Z,27.37
2022-12-04T08:59:15.694Z,33.70
2022-12-04T09:02:01.075Z,26.60
2022-12-04T09:04:46.291Z,34.30
2022-12-04T09:07:31.381Z,35.67
2022-12-04T09:10:16.728Z,34.73
2022-12-04T09:13:02.088Z,35.93
2022-12-04T09:15:47.494Z,36.03
2022-12-04T09:18:33.621Z,41.20
2022-12-04T09:21:21.309Z,36.40
2022-12-04T09:24:06.760Z,33.33
2022-12-04T09:26:52.169Z,32.40
2022-12-04T09:29:37.717Z,35.53
2022-12-04T09:32:23.752Z,28.33
2022-12-04T09:35:09.344Z,29.20
2022-12-04T09:37:54.701Z,31.43
2022-12-04T09:41:25.092Z,27.13
2022-12-04T09:44:20.049Z,27.60
2022-12-04T09:53:05.392Z,29.23
2022-12-04T09:56:04.181Z,31.10
2022-12-04T09:59:10.535Z,30.57
2022-12-04T10:02:00.031Z,35.17
2022-12-04T10:04:44.712Z,27.10
2022-12-04T10:07:44.501Z,28.17
2022-12-04T10:10:29.599Z,29.90
2022-12-04T11:22:57.267Z,74.80
2022-12-04T11:25:50.363Z,74.07
2022-12-04T11:28:42.424Z,71.68
2022-12-04T11:31:29.781Z,77.20
2022-12-04T11:34:22.504Z,78.40
2022-12-04T11:37:20.947Z,70.97
2022-12-04T11:40:17.129Z,69.13
2022-12-04T11:43:12.397Z,67.53
2022-12-04T11:46:00.916Z,63.50
2022-12-04T11:48:46.419Z,59.93
2022-12-04T11:51:47.156Z,63.13
2022-12-04T11:54:41.645Z,65.47
2022-12-04T11:57:47.685Z,61.93
2022-12-04T12:00:40.755Z,63.57
2022-12-04T12:03:49.057Z,66.18
2022-12-04T12:06:49.969Z,57.23
2022-12-04T12:10:10.332Z,60.90
2022-12-04T12:13:20.660Z,59.07
2022-12-04T12:16:21.012Z,54.43
2022-12-04T12:19:28.486Z,56.13
2022-12-04T12:22:28.590Z,57.30
2022-12-04T12:25:22.382Z,54.80
2022-12-04T12:28:35.442Z,52.60
2022-12-04T12:31:55.740Z,52.40
2022-12-04T12:34:43.207Z,56.47
2022-12-04T12:38:03.229Z,50.37
2022-12-04T12:46:22.034Z,50.00
2022-12-04T12:49:31.566Z,54.77
2022-12-04T12:52:29.851Z,50.97
2022-12-04T12:55:24.326Z,47.13
2022-12-04T12:58:08.712Z,43.37
2022-12-04T13:01:29.821Z,43.97
2022-12-04T13:04:34.620Z,47.37
2022-12-04T13:07:27.782Z,53.23
2022-12-04T13:13:06.887Z,46.77
2022-12-04T13:16:23.173Z,44.77
2022-12-04T13:19:29.940Z,45.20
2022-12-04T13:22:46.235Z,46.27
2022-12-04T13:25:47.075Z,40.97
2022-12-04T13:29:00.197Z,41.67
2022-12-04T13:32:22.534Z,42.30
2022-12-04T13:35:50.036Z,39.97
2022-12-04T13:38:38.320Z,47.10
2022-12-04T13:41:26.046Z,40.60
2022-12-04T13:44:14.688Z,39.77
2022-12-04T13:47:03.406Z,47.47
2022-12-04T13:49:49.209Z,39.97
2022-12-04T13:52:41.363Z,47.80
2022-12-04T13:55:39.360Z,42.00
2022-12-04T13:58:30.605Z,45.43
2022-12-04T14:01:28.823Z,42.73
2022-12-04T14:04:29.566Z,35.53
2022-12-04T14:07:25.711Z,39.97
2022-12-04T14:10:14.424Z,37.90
2022-12-04T14:13:05.903Z,36.70
2022-12-04T14:16:04.563Z,35.97
2022-12-04T14:18:54.050Z,32.87
2022-12-04T14:21:45.603Z,39.23
2022-12-04T14:24:37.227Z,36.97
2022-12-04T14:27:42.521Z,41.07
2022-12-04T14:30:39.282Z,41.17
2022-12-04T14:33:26.738Z,39.80
2022-12-04T14:36:19.161Z,39.70
2022-12-04T14:39:20.967Z,37.93
2022-12-04T14:42:13.482Z,35.57
2022-12-04T14:45:00.975Z,35.63
2022-12-04T14:48:15.651Z,32.23
2022-12-04T14:51:09.652Z,37.17
2022-12-04T14:54:07.605Z,30.90
2022-12-04T14:57:04.883Z,38.73
2022-12-04T14:59:53.626Z,40.50
2022-12-04T15:02:40.503Z,30.70
2022-12-04T15:05:29.371Z,32.40
2022-12-04T15:08:15.329Z,33.43
2022-12-04T15:11:19.214Z,29.70
2022-12-04T15:14:13.028Z,37.97
2022-12-04T15:17:04.807Z,33.13
2022-12-04T15:19:50.100Z,29.73
2022-12-04T15:22:35.556Z,31.17
2022-12-04T15:25:25.287Z,29.17
2022-12-04T15:28:18.427Z,30.57
2022-12-04T15:31:10.263Z,27.02
2022-12-04T15:34:00.653Z,28.27
2022-12-04T15:37:03.226Z,30.73
2022-12-04T15:39:50.823Z,28.87
2022-12-04T15:42:37.534Z,29.03
2022-12-04T15:45:34.799Z,30.73
2022-12-04T15:48:29.372Z,30.77
2022-12-04T15:51:18.975Z,33.53
2022-12-04T15:54:04.632Z,31.40
2022-12-04T15:57:01.129Z,32.60
2022-12-04T15:59:51.894Z,32.33
2022-12-04T16:02:42.870Z,34.67
2022-12-04T16:05:36.455Z,32.63
2022-12-04T16:08:25.412Z,29.27
2022-12-04T16:17:02.645Z,27.47
2022-12-04T16:19:50.784Z,33.63
2022-12-04T16:22:35.752Z,44.20
2022-12-04T16:25:20.482Z,37.40
2022-12-04T16:28:05.704Z,36.93
2022-12-04T16:30:54.225Z,32.97
2022-12-04T16:33:39.306Z,29.20
2022-12-04T17:45:28.958Z,32.47
2022-12-04T17:48:16.705Z,36.20
2022-12-04T17:51:23.076Z,34.00
2022-12-04T17:54:08.282Z,36.03
2022-12-04T17:56:57.787Z,33.67
2022-12-04T17:59:44.660Z,37.47
2022-12-04T18:02:30.312Z,36.80
2022-12-04T18:05:17.228Z,37.60
2022-12-04T18:08:02.617Z,31.33
2022-12-04T18:10:48.537Z,32.00
2022-12-04T18:13:34.605Z,32.07
2022-12-04T18:16:20.579Z,28.93
2022-12-04T18:19:07.816Z,35.30
2022-12-04T18:21:54.415Z,29.03
2022-12-04T18:24:40.106Z,28.23
2022-12-04T18:27:26.261Z,26.40
2022-12-04T18:30:12.357Z,32.27
2022-12-04T18:32:58.430Z,28.23
2022-12-04T18:35:44.048Z,24.77
2022-12-04T18:38:31.057Z,28.37
2022-12-04T18:41:16.460Z,28.10
2022-12-04T18:44:03.157Z,27.37
2022-12-04T18:46:48.441Z,29.47
2022-12-04T18:49:33.754Z,25.27
2022-12-04T19:00:41.322Z,26.70
2022-12-04T19:03:26.098Z,25.77
2022-12-04T19:06:12.245Z,24.07
2022-12-04T19:09:00.093Z,25.17
2022-12-04T19:11:45.623Z,23.30
2022-12-04T19:14:31.505Z,25.27
2022-12-04T19:17:16.948Z,26.00
2022-12-04T19:20:02.433Z,24.33
2022-12-04T19:22:47.948Z,22.50
2022-12-04T19:25:33.536Z,26.57
2022-12-04T19:28:18.927Z,22.67
2022-12-04T19:31:05.000Z,25.57
2022-12-04T19:33:51.124Z,28.90
2022-12-04T19:36:36.695Z,25.43
2022-12-04T19:39:22.505Z,27.23
2022-12-04T19:42:09.608Z,24.50
2022-12-04T19:44:56.585Z,23.83
2022-12-04T19:47:43.451Z,27.00
2022-12-04T19:50:29.305Z,26.00
2022-12-04T19:53:14.620Z,25.20
2022-12-04T19:56:05.546Z,25.40
2022-12-04T19:58:52.495Z,24.67
2022-12-04T20:01:38.601Z,23.73
2022-12-04T20:04:24.001Z,25.40
2022-12-04T20:07:09.388Z,23.03
2022-12-04T20:09:54.730Z,26.23
2022-12-04T20:12:40.824Z,23.20
2022-12-04T20:15:26.430Z,22.03
2022-12-04T20:18:11.932Z,22.87
2022-12-04T20:20:59.055Z,24.77
2022-12-04T20:23:50.646Z,25.10
2022-12-04T20:26:39.086Z,24.27
2022-12-04T20:29:24.889Z,21.40
2022-12-04T20:32:10.566Z,21.90
2022-12-04T20:34:55.840Z,22.67
2022-12-04T20:37:41.421Z,22.27
2022-12-04T20:40:26.851Z,22.50
2022-12-04T20:43:12.776Z,22.57
2022-12-04T20:45:58.191Z,24.70
2022-12-04T20:48:48.285Z,22.17
2022-12-04T20:51:39.015Z,23.00
2022-12-04T20:54:25.501Z,29.47
2022-12-04T20:57:10.977Z,20.07
2022-12-04T20:59:57.099Z,24.03
2022-12-04T21:02:43.658Z,18.90
2022-12-04T21:05:29.183Z,18.87
2022-12-04T21:08:14.607Z,22.47
2022-12-04T21:10:59.774Z,22.37
2022-12-04T21:14:03.517Z,19.80
2022-12-04T21:16:49.848Z,20.23
2022-12-04T21:19:35.249Z,20.67
2022-12-04T21:22:21.163Z,19.53
2022-12-04T21:25:08.950Z,21.23
2022-12-04T21:27:54.908Z,19.33
2022-12-04T21:30:40.205Z,18.70
2022-12-04T21:33:25.893Z,23.03
2022-12-04T21:36:11.529Z,17.23
2022-12-04T21:38:57.253Z,21.57
2022-12-04T21:42:01.027Z,19.90
2022-12-04T21:44:46.864Z,22.23
2022-12-04T21:47:32.910Z,18.47
2022-12-04T21:50:18.496Z,16.43
2022-12-04T21:53:03.916Z,20.43
2022-12-04T21:55:55.949Z,21.70
2022-12-04T21:58:41.880Z,17.60
2022-12-04T22:01:28.456Z,16.37
2022-12-04T22:04:13.927Z,17.83
2022-12-04T22:06:59.380Z,17.83
2022-12-04T22:09:44.931Z,18.37
2022-12-04T22:15:39.072Z,16.87
2022-12-04T22:18:24.835Z,17.00
2022-12-04T22:21:14.573Z,17.30
2022-12-04T22:24:01.868Z,15.17
2022-12-04T22:26:47.225Z,17.70
2022-12-04T22:32:37.944Z,15.13
2022-12-04T22:35:24.306Z,15.50
2022-12-04T22:38:09.934Z,14.93
2022-12-04T22:40:55.110Z,14.97
2022-12-04T22:43:41.149Z,15.43
2022-12-04T22:46:26.413Z,15.77
2022-12-04T22:49:11.723Z,15.67
2022-12-04T22:51:57.157Z,16.87
2022-12-04T22:54:42.480Z,14.67
2022-12-04T22:57:28.381Z,15.80
2022-12-04T23:00:14.265Z,13.80
2022-12-04T23:02:59.787Z,15.03
2022-12-04T23:05:45.037Z,16.37
2022-12-04T23:08:30.573Z,14.97
2022-12-04T23:11:19.320Z,18.90
2022-12-04T23:14:06.989Z,13.43
2022-12-04T23:16:52.488Z,13.87
2022-12-04T23:19:38.441Z,13.57
2022-12-04T23:22:23.877Z,14.67
2022-12-04T23:25:09.375Z,14.83
2022-12-04T23:27:54.961Z,14.43
2022-12-04T23:30:45.636Z,13.33
2022-12-04T23:33:32.292Z,15.93
2022-12-04T23:36:17.879Z,14.07
2022-12-04T23:39:03.596Z,14.97
2022-12-04T23:41:49.185Z,13.80
2022-12-04T23:44:34.731Z,14.23
2022-12-04T23:47:20.083Z,16.87
2022-12-04T23:50:05.922Z,16.00
2022-12-04T23:52:51.323Z,14.30
2022-12-04T23:55:36.521Z,13.60
2022-12-04T23:58:21.694Z,12.70
